sensor_id;sensor_type;location;lat;lon;timestamp;P1;durP1;ratioP1;P2;durP2;ratioP2
14118;SDS011;7138;49.246;9.100;2023-03-01T00:01:36;18.38;;;9.15;;
14118;SDS011;7138;49.246;9.100;2023-03-01T00:04:02;19.13;;;9.65;;
14118;SDS011;7138;49.246;9.100;2023-03-01T00:06:28;18.77;;;10.13;;
14118;SDS011;7138;49.246;9.100;2023-03-01T00:08:55;17.65;;;9.05;;
14118;SDS011;7138;49.246;9.100;2023-03-01T00:11:22;18.40;;;10.43;;
14118;SDS011;7138;49.246;9.100;2023-03-01T00:13:50;16.33;;;9.40;;
14118;SDS011;7138;49.246;9.100;2023-03-01T00:16:19;18.35;;;9.50;;
14118;SDS011;7138;49.246;9.100;2023-03-01T00:18:47;19.27;;;10.43;;
14118;SDS011;7138;49.246;9.100;2023-03-01T00:21:15;17.02;;;9.27;;
14118;SDS011;7138;49.246;9.100;2023-03-01T00:23:41;20.30;;;10.25;;
14118;SDS011;7138;49.246;9.100;2023-03-01T00:26:09;18.90;;;10.25;;
14118;SDS011;7138;49.246;9.100;2023-03-01T00:28:37;18.35;;;10.20;;
14118;SDS011;7138;49.246;9.100;2023-03-01T00:31:03;18.40;;;10.32;;
14118;SDS011;7138;49.246;9.100;2023-03-01T00:33:31;20.02;;;10.43;;
14118;SDS011;7138;49.246;9.100;2023-03-01T00:35:57;19.10;;;10.48;;
14118;SDS011;7138;49.246;9.100;2023-03-01T00:38:23;19.27;;;10.35;;
14118;SDS011;7138;49.246;9.100;2023-03-01T00:40:49;20.17;;;10.45;;
14118;SDS011;7138;49.246;9.100;2023-03-01T00:43:17;21.88;;;11.32;;
14118;SDS011;7138;49.246;9.100;2023-03-01T00:45:43;23.75;;;10.80;;
14118;SDS011;7138;49.246;9.100;2023-03-01T00:48:10;17.52;;;10.32;;
14118;SDS011;7138;49.246;9.100;2023-03-01T00:50:35;19.42;;;10.90;;
14118;SDS011;7138;49.246;9.100;2023-03-01T00:53:01;19.92;;;10.57;;
14118;SDS011;7138;49.246;9.100;2023-03-01T00:55:27;19.50;;;10.80;;
14118;SDS011;7138;49.246;9.100;2023-03-01T00:57:53;21.35;;;11.23;;
14118;SDS011;7138;49.246;9.100;2023-03-01T01:00:21;22.15;;;10.93;;
14118;SDS011;7138;49.246;9.100;2023-03-01T01:02:47;22.02;;;11.02;;
14118;SDS011;7138;49.246;9.100;2023-03-01T01:05:14;21.02;;;11.45;;
14118;SDS011;7138;49.246;9.100;2023-03-01T01:07:45;20.70;;;11.05;;
14118;SDS011;7138;49.246;9.100;2023-03-01T01:10:13;20.38;;;11.52;;
14118;SDS011;7138;49.246;9.100;2023-03-01T01:12:41;21.93;;;11.03;;
14118;SDS011;7138;49.246;9.100;2023-03-01T01:15:09;23.98;;;12.00;;
14118;SDS011;7138;49.246;9.100;2023-03-01T01:17:39;17.27;;;9.93;;
14118;SDS011;7138;49.246;9.100;2023-03-01T01:20:05;21.80;;;11.73;;
14118;SDS011;7138;49.246;9.100;2023-03-01T01:22:33;21.38;;;11.63;;
14118;SDS011;7138;49.246;9.100;2023-03-01T01:24:59;22.33;;;11.68;;
14118;SDS011;7138;49.246;9.100;2023-03-01T01:27:25;20.17;;;10.95;;
14118;SDS011;7138;49.246;9.100;2023-03-01T01:29:52;22.83;;;11.80;;
14118;SDS011;7138;49.246;9.100;2023-03-01T01:32:18;21.65;;;11.13;;
14118;SDS011;7138;49.246;9.100;2023-03-01T01:34:45;20.10;;;11.70;;
14118;SDS011;7138;49.246;9.100;2023-03-01T01:37:11;22.80;;;12.77;;
14118;SDS011;7138;49.246;9.100;2023-03-01T01:39:37;20.58;;;11.18;;
14118;SDS011;7138;49.246;9.100;2023-03-01T01:42:03;24.40;;;12.57;;
14118;SDS011;7138;49.246;9.100;2023-03-01T01:44:29;23.15;;;11.90;;
14118;SDS011;7138;49.246;9.100;2023-03-01T01:46:55;25.15;;;13.00;;
14118;SDS011;7138;49.246;9.100;2023-03-01T01:49:27;19.85;;;11.60;;
14118;SDS011;7138;49.246;9.100;2023-03-01T01:52:03;22.02;;;11.93;;
14118;SDS011;7138;49.246;9.100;2023-03-01T01:54:38;21.92;;;12.05;;
14118;SDS011;7138;49.246;9.100;2023-03-01T01:57:11;22.55;;;12.05;;
14118;SDS011;7138;49.246;9.100;2023-03-01T01:59:43;20.92;;;11.77;;
14118;SDS011;7138;49.246;9.100;2023-03-01T02:02:15;20.80;;;10.82;;
14118;SDS011;7138;49.246;9.100;2023-03-01T02:04:42;21.40;;;11.70;;
14118;SDS011;7138;49.246;9.100;2023-03-01T02:07:11;20.73;;;11.55;;
14118;SDS011;7138;49.246;9.100;2023-03-01T02:09:41;22.80;;;11.32;;
14118;SDS011;7138;49.246;9.100;2023-03-01T02:12:11;20.83;;;11.55;;
14118;SDS011;7138;49.246;9.100;2023-03-01T02:14:39;23.25;;;11.40;;
14118;SDS011;7138;49.246;9.100;2023-03-01T02:17:04;21.35;;;11.70;;
14118;SDS011;7138;49.246;9.100;2023-03-01T02:19:33;20.95;;;10.43;;
14118;SDS011;7138;49.246;9.100;2023-03-01T02:22:23;21.83;;;11.80;;
14118;SDS011;7138;49.246;9.100;2023-03-01T02:24:57;24.35;;;12.25;;
14118;SDS011;7138;49.246;9.100;2023-03-01T02:27:38;22.63;;;11.68;;
14118;SDS011;7138;49.246;9.100;2023-03-01T02:32:43;26.88;;;11.40;;
14118;SDS011;7138;49.246;9.100;2023-03-01T02:35:12;24.70;;;11.80;;
14118;SDS011;7138;49.246;9.100;2023-03-01T02:37:41;23.90;;;11.63;;
14118;SDS011;7138;49.246;9.100;2023-03-01T02:40:09;23.13;;;12.57;;
14118;SDS011;7138;49.246;9.100;2023-03-01T02:42:45;23.30;;;11.93;;
14118;SDS011;7138;49.246;9.100;2023-03-01T02:45:18;22.48;;;12.18;;
14118;SDS011;7138;49.246;9.100;2023-03-01T02:47:45;23.25;;;12.35;;
14118;SDS011;7138;49.246;9.100;2023-03-01T02:50:13;22.42;;;12.43;;
14118;SDS011;7138;49.246;9.100;2023-03-01T02:53:11;24.45;;;12.93;;
14118;SDS011;7138;49.246;9.100;2023-03-01T02:55:45;25.05;;;12.95;;
14118;SDS011;7138;49.246;9.100;2023-03-01T02:58:10;22.27;;;12.02;;
14118;SDS011;7138;49.246;9.100;2023-03-01T03:00:39;24.38;;;12.63;;
14118;SDS011;7138;49.246;9.100;2023-03-01T03:03:12;22.05;;;12.05;;
14118;SDS011;7138;49.246;9.100;2023-03-01T03:05:40;27.30;;;11.95;;
14118;SDS011;7138;49.246;9.100;2023-03-01T03:08:06;22.08;;;11.95;;
14118;SDS011;7138;49.246;9.100;2023-03-01T03:10:33;23.85;;;11.73;;
14118;SDS011;7138;49.246;9.100;2023-03-01T03:13:03;23.45;;;11.77;;
14118;SDS011;7138;49.246;9.100;2023-03-01T03:15:32;24.30;;;12.73;;
14118;SDS011;7138;49.246;9.100;2023-03-01T03:18:05;22.98;;;12.30;;
14118;SDS011;7138;49.246;9.100;2023-03-01T03:20:34;22.45;;;11.98;;
14118;SDS011;7138;49.246;9.100;2023-03-01T03:23:01;23.42;;;12.15;;
14118;SDS011;7138;49.246;9.100;2023-03-01T03:25:28;28.15;;;12.93;;
14118;SDS011;7138;49.246;9.100;2023-03-01T03:27:55;25.55;;;12.57;;
14118;SDS011;7138;49.246;9.100;2023-03-01T03:30:22;26.58;;;12.90;;
14118;SDS011;7138;49.246;9.100;2023-03-01T03:32:50;24.88;;;12.38;;
14118;SDS011;7138;49.246;9.100;2023-03-01T03:35:21;24.88;;;12.73;;
14118;SDS011;7138;49.246;9.100;2023-03-01T03:37:50;23.38;;;12.20;;
14118;SDS011;7138;49.246;9.100;2023-03-01T03:40:26;25.55;;;12.93;;
14118;SDS011;7138;49.246;9.100;2023-03-01T03:42:55;24.23;;;12.57;;
14118;SDS011;7138;49.246;9.100;2023-03-01T03:45:21;24.15;;;11.90;;
14118;SDS011;7138;49.246;9.100;2023-03-01T03:47:47;24.08;;;12.88;;
14118;SDS011;7138;49.246;9.100;2023-03-01T03:50:13;23.08;;;12.38;;
14118;SDS011;7138;49.246;9.100;2023-03-01T03:52:43;25.33;;;12.77;;
14118;SDS011;7138;49.246;9.100;2023-03-01T03:55:10;23.13;;;12.73;;
14118;SDS011;7138;49.246;9.100;2023-03-01T03:57:37;24.05;;;12.20;;
14118;SDS011;7138;49.246;9.100;2023-03-01T04:00:05;23.67;;;12.23;;
14118;SDS011;7138;49.246;9.100;2023-03-01T04:02:37;24.17;;;12.57;;
14118;SDS011;7138;49.246;9.100;2023-03-01T04:05:04;24.58;;;12.70;;
14118;SDS011;7138;49.246;9.100;2023-03-01T04:07:32;28.95;;;12.93;;
14118;SDS011;7138;49.246;9.100;2023-03-01T04:10:00;24.70;;;12.75;;
14118;SDS011;7138;49.246;9.100;2023-03-01T04:12:26;22.42;;;12.23;;
14118;SDS011;7138;49.246;9.100;2023-03-01T04:14:51;24.95;;;13.20;;
14118;SDS011;7138;49.246;9.100;2023-03-01T04:17:18;25.55;;;13.48;;
14118;SDS011;7138;49.246;9.100;2023-03-01T04:19:44;25.45;;;12.60;;
14118;SDS011;7138;49.246;9.100;2023-03-01T04:22:13;29.50;;;13.82;;
14118;SDS011;7138;49.246;9.100;2023-03-01T04:24:42;24.52;;;12.15;;
14118;SDS011;7138;49.246;9.100;2023-03-01T04:27:09;24.83;;;12.30;;
14118;SDS011;7138;49.246;9.100;2023-03-01T04:29:35;25.38;;;12.73;;
14118;SDS011;7138;49.246;9.100;2023-03-01T04:32:01;27.25;;;13.23;;
14118;SDS011;7138;49.246;9.100;2023-03-01T04:34:28;28.67;;;13.23;;
14118;SDS011;7138;49.246;9.100;2023-03-01T04:36:54;25.30;;;12.40;;
14118;SDS011;7138;49.246;9.100;2023-03-01T04:39:20;29.73;;;13.32;;
14118;SDS011;7138;49.246;9.100;2023-03-01T04:41:46;27.52;;;12.88;;
14118;SDS011;7138;49.246;9.100;2023-03-01T04:44:14;25.80;;;13.35;;
14118;SDS011;7138;49.246;9.100;2023-03-01T04:46:39;26.52;;;13.30;;
14118;SDS011;7138;49.246;9.100;2023-03-01T04:49:05;26.48;;;13.23;;
14118;SDS011;7138;49.246;9.100;2023-03-01T04:51:31;28.25;;;13.13;;
14118;SDS011;7138;49.246;9.100;2023-03-01T04:53:57;23.90;;;12.77;;
14118;SDS011;7138;49.246;9.100;2023-03-01T04:56:23;25.00;;;13.25;;
14118;SDS011;7138;49.246;9.100;2023-03-01T04:58:49;27.40;;;13.50;;
14118;SDS011;7138;49.246;9.100;2023-03-01T05:01:19;26.80;;;13.17;;
14118;SDS011;7138;49.246;9.100;2023-03-01T05:03:46;23.67;;;12.63;;
14118;SDS011;7138;49.246;9.100;2023-03-01T05:06:15;26.23;;;13.43;;
14118;SDS011;7138;49.246;9.100;2023-03-01T05:08:45;27.63;;;13.88;;
14118;SDS011;7138;49.246;9.100;2023-03-01T05:11:11;25.95;;;13.40;;
14118;SDS011;7138;49.246;9.100;2023-03-01T05:13:38;25.05;;;14.10;;
14118;SDS011;7138;49.246;9.100;2023-03-01T05:16:05;26.23;;;12.75;;
14118;SDS011;7138;49.246;9.100;2023-03-01T05:18:37;29.48;;;14.27;;
14118;SDS011;7138;49.246;9.100;2023-03-01T05:21:06;31.85;;;15.40;;
14118;SDS011;7138;49.246;9.100;2023-03-01T05:23:34;24.65;;;13.18;;
14118;SDS011;7138;49.246;9.100;2023-03-01T05:26:01;27.38;;;12.68;;
14118;SDS011;7138;49.246;9.100;2023-03-01T05:28:29;28.35;;;13.95;;
14118;SDS011;7138;49.246;9.100;2023-03-01T05:30:56;31.30;;;13.80;;
14118;SDS011;7138;49.246;9.100;2023-03-01T05:33:23;25.17;;;12.82;;
14118;SDS011;7138;49.246;9.100;2023-03-01T05:35:51;27.10;;;13.88;;
14118;SDS011;7138;49.246;9.100;2023-03-01T05:38:18;29.15;;;13.70;;
14118;SDS011;7138;49.246;9.100;2023-03-01T05:40:45;26.35;;;13.63;;
14118;SDS011;7138;49.246;9.100;2023-03-01T05:43:13;27.55;;;13.48;;
14118;SDS011;7138;49.246;9.100;2023-03-01T05:45:42;26.55;;;13.75;;
14118;SDS011;7138;49.246;9.100;2023-03-01T05:48:09;27.30;;;13.75;;
14118;SDS011;7138;49.246;9.100;2023-03-01T05:50:37;29.55;;;15.32;;
14118;SDS011;7138;49.246;9.100;2023-03-01T05:53:08;27.55;;;14.20;;
14118;SDS011;7138;49.246;9.100;2023-03-01T05:55:38;26.75;;;13.02;;
14118;SDS011;7138;49.246;9.100;2023-03-01T05:58:05;28.90;;;13.18;;
14118;SDS011;7138;49.246;9.100;2023-03-01T06:00:35;26.92;;;13.32;;
14118;SDS011;7138;49.246;9.100;2023-03-01T06:03:02;27.30;;;12.88;;
14118;SDS011;7138;49.246;9.100;2023-03-01T06:05:28;27.13;;;14.23;;
14118;SDS011;7138;49.246;9.100;2023-03-01T06:07:55;29.92;;;14.80;;
14118;SDS011;7138;49.246;9.100;2023-03-01T06:10:25;29.75;;;14.30;;
14118;SDS011;7138;49.246;9.100;2023-03-01T06:12:50;30.23;;;14.48;;
14118;SDS011;7138;49.246;9.100;2023-03-01T06:15:16;29.20;;;15.05;;
14118;SDS011;7138;49.246;9.100;2023-03-01T06:17:43;31.38;;;15.15;;
14118;SDS011;7138;49.246;9.100;2023-03-01T06:20:12;32.72;;;15.18;;
14118;SDS011;7138;49.246;9.100;2023-03-01T06:22:40;24.92;;;11.30;;
14118;SDS011;7138;49.246;9.100;2023-03-01T06:25:07;30.17;;;15.20;;
14118;SDS011;7138;49.246;9.100;2023-03-01T06:27:35;33.03;;;14.27;;
14118;SDS011;7138;49.246;9.100;2023-03-01T06:30:01;32.42;;;15.70;;
14118;SDS011;7138;49.246;9.100;2023-03-01T06:32:27;30.15;;;15.20;;
14118;SDS011;7138;49.246;9.100;2023-03-01T06:34:53;31.05;;;15.00;;
14118;SDS011;7138;49.246;9.100;2023-03-01T06:37:19;27.55;;;14.02;;
14118;SDS011;7138;49.246;9.100;2023-03-01T06:39:45;27.60;;;13.73;;
14118;SDS011;7138;49.246;9.100;2023-03-01T06:42:10;30.50;;;15.10;;
14118;SDS011;7138;49.246;9.100;2023-03-01T06:44:37;27.75;;;14.15;;
14118;SDS011;7138;49.246;9.100;2023-03-01T06:47:04;26.02;;;13.90;;
14118;SDS011;7138;49.246;9.100;2023-03-01T06:49:29;27.55;;;14.00;;
14118;SDS011;7138;49.246;9.100;2023-03-01T06:51:55;28.00;;;14.15;;
14118;SDS011;7138;49.246;9.100;2023-03-01T06:54:21;25.40;;;13.63;;
14118;SDS011;7138;49.246;9.100;2023-03-01T06:56:48;29.80;;;14.27;;
14118;SDS011;7138;49.246;9.100;2023-03-01T06:59:14;24.88;;;13.55;;
14118;SDS011;7138;49.246;9.100;2023-03-01T07:01:42;25.42;;;13.50;;
14118;SDS011;7138;49.246;9.100;2023-03-01T07:04:08;27.48;;;14.73;;
14118;SDS011;7138;49.246;9.100;2023-03-01T07:06:34;26.73;;;13.75;;
14118;SDS011;7138;49.246;9.100;2023-03-01T07:09:00;24.73;;;13.27;;
14118;SDS011;7138;49.246;9.100;2023-03-01T07:11:29;25.75;;;14.00;;
14118;SDS011;7138;49.246;9.100;2023-03-01T07:13:55;28.27;;;13.90;;
14118;SDS011;7138;49.246;9.100;2023-03-01T07:16:21;27.55;;;14.43;;
14118;SDS011;7138;49.246;9.100;2023-03-01T07:18:48;29.33;;;14.88;;
14118;SDS011;7138;49.246;9.100;2023-03-01T07:21:14;32.03;;;14.80;;
14118;SDS011;7138;49.246;9.100;2023-03-01T07:23:41;31.02;;;15.00;;
14118;SDS011;7138;49.246;9.100;2023-03-01T07:26:07;28.58;;;14.80;;
14118;SDS011;7138;49.246;9.100;2023-03-01T07:28:33;26.27;;;13.63;;
14118;SDS011;7138;49.246;9.100;2023-03-01T07:31:04;25.70;;;13.32;;
14118;SDS011;7138;49.246;9.100;2023-03-01T07:33:31;24.30;;;13.15;;
14118;SDS011;7138;49.246;9.100;2023-03-01T07:35:59;26.50;;;13.38;;
14118;SDS011;7138;49.246;9.100;2023-03-01T07:38:27;24.75;;;12.73;;
14118;SDS011;7138;49.246;9.100;2023-03-01T07:40:56;25.73;;;13.13;;
14118;SDS011;7138;49.246;9.100;2023-03-01T07:43:24;23.10;;;12.43;;
14118;SDS011;7138;49.246;9.100;2023-03-01T07:45:50;23.90;;;12.30;;
14118;SDS011;7138;49.246;9.100;2023-03-01T07:48:15;24.35;;;13.73;;
14118;SDS011;7138;49.246;9.100;2023-03-01T07:50:41;26.48;;;13.68;;
14118;SDS011;7138;49.246;9.100;2023-03-01T07:53:08;23.77;;;13.40;;
14118;SDS011;7138;49.246;9.100;2023-03-01T07:55:35;24.25;;;13.15;;
14118;SDS011;7138;49.246;9.100;2023-03-01T07:58:01;27.05;;;13.15;;
14118;SDS011;7138;49.246;9.100;2023-03-01T08:00:26;24.33;;;12.98;;
14118;SDS011;7138;49.246;9.100;2023-03-01T08:02:52;25.25;;;13.07;;
14118;SDS011;7138;49.246;9.100;2023-03-01T08:05:18;23.92;;;13.63;;
14118;SDS011;7138;49.246;9.100;2023-03-01T08:07:44;25.45;;;13.82;;
14118;SDS011;7138;49.246;9.100;2023-03-01T08:10:11;24.77;;;13.50;;
14118;SDS011;7138;49.246;9.100;2023-03-01T08:12:37;25.23;;;12.68;;
14118;SDS011;7138;49.246;9.100;2023-03-01T08:15:03;24.95;;;12.88;;
14118;SDS011;7138;49.246;9.100;2023-03-01T08:17:30;25.55;;;13.95;;
14118;SDS011;7138;49.246;9.100;2023-03-01T08:19:56;26.90;;;14.23;;
14118;SDS011;7138;49.246;9.100;2023-03-01T08:22:21;26.13;;;13.15;;
14118;SDS011;7138;49.246;9.100;2023-03-01T08:24:47;25.05;;;14.20;;
14118;SDS011;7138;49.246;9.100;2023-03-01T08:27:15;27.45;;;13.57;;
14118;SDS011;7138;49.246;9.100;2023-03-01T08:29:41;21.98;;;11.27;;
14118;SDS011;7138;49.246;9.100;2023-03-01T08:32:07;23.95;;;13.73;;
14118;SDS011;7138;49.246;9.100;2023-03-01T08:34:33;28.30;;;14.27;;
14118;SDS011;7138;49.246;9.100;2023-03-01T08:37:00;26.83;;;13.93;;
14118;SDS011;7138;49.246;9.100;2023-03-01T08:39:26;27.25;;;12.60;;
14118;SDS011;7138;49.246;9.100;2023-03-01T08:41:53;22.45;;;12.00;;
14118;SDS011;7138;49.246;9.100;2023-03-01T08:44:20;25.48;;;13.77;;
14118;SDS011;7138;49.246;9.100;2023-03-01T08:46:46;26.73;;;13.52;;
14118;SDS011;7138;49.246;9.100;2023-03-01T08:49:13;24.35;;;13.63;;
14118;SDS011;7138;49.246;9.100;2023-03-01T08:51:41;26.27;;;13.93;;
14118;SDS011;7138;49.246;9.100;2023-03-01T08:54:09;24.05;;;13.90;;
14118;SDS011;7138;49.246;9.100;2023-03-01T08:56:39;27.00;;;14.30;;
14118;SDS011;7138;49.246;9.100;2023-03-01T08:59:05;25.00;;;12.77;;
14118;SDS011;7138;49.246;9.100;2023-03-01T09:01:33;26.60;;;14.52;;
14118;SDS011;7138;49.246;9.100;2023-03-01T09:03:59;28.08;;;14.00;;
14118;SDS011;7138;49.246;9.100;2023-03-01T09:06:29;24.65;;;12.48;;
14118;SDS011;7138;49.246;9.100;2023-03-01T09:08:56;26.13;;;14.57;;
14118;SDS011;7138;49.246;9.100;2023-03-01T09:11:22;28.65;;;14.68;;
14118;SDS011;7138;49.246;9.100;2023-03-01T09:13:48;24.95;;;13.68;;
14118;SDS011;7138;49.246;9.100;2023-03-01T09:16:15;28.98;;;14.88;;
14118;SDS011;7138;49.246;9.100;2023-03-01T09:18:48;25.23;;;13.13;;
14118;SDS011;7138;49.246;9.100;2023-03-01T09:21:16;24.98;;;14.00;;
14118;SDS011;7138;49.246;9.100;2023-03-01T09:23:44;26.27;;;14.43;;
14118;SDS011;7138;49.246;9.100;2023-03-01T09:26:12;25.17;;;13.70;;
14118;SDS011;7138;49.246;9.100;2023-03-01T09:28:41;20.88;;;11.48;;
14118;SDS011;7138;49.246;9.100;2023-03-01T09:31:09;25.25;;;13.25;;
14118;SDS011;7138;49.246;9.100;2023-03-01T09:33:37;26.40;;;13.25;;
14118;SDS011;7138;49.246;9.100;2023-03-01T09:36:07;24.38;;;14.55;;
14118;SDS011;7138;49.246;9.100;2023-03-01T09:38:37;22.88;;;13.32;;
14118;SDS011;7138;49.246;9.100;2023-03-01T09:41:08;25.50;;;14.38;;
14118;SDS011;7138;49.246;9.100;2023-03-01T09:43:43;25.17;;;13.90;;
14118;SDS011;7138;49.246;9.100;2023-03-01T09:46:19;48.47;;;16.55;;
14118;SDS011;7138;49.246;9.100;2023-03-01T09:48:48;23.13;;;14.00;;
14118;SDS011;7138;49.246;9.100;2023-03-01T09:51:22;24.33;;;14.18;;
14118;SDS011;7138;49.246;9.100;2023-03-01T09:53:54;24.63;;;14.10;;
14118;SDS011;7138;49.246;9.100;2023-03-01T09:56:23;24.83;;;13.95;;
14118;SDS011;7138;49.246;9.100;2023-03-01T09:58:58;25.00;;;14.57;;
14118;SDS011;7138;49.246;9.100;2023-03-01T10:01:40;22.05;;;13.93;;
14118;SDS011;7138;49.246;9.100;2023-03-01T10:04:28;24.85;;;13.85;;
14118;SDS011;7138;49.246;9.100;2023-03-01T10:07:20;21.58;;;13.10;;
14118;SDS011;7138;49.246;9.100;2023-03-01T10:09:57;21.92;;;12.57;;
14118;SDS011;7138;49.246;9.100;2023-03-01T10:12:26;27.33;;;14.57;;
14118;SDS011;7138;49.246;9.100;2023-03-01T10:15:00;23.67;;;14.55;;
14118;SDS011;7138;49.246;9.100;2023-03-01T10:17:36;25.45;;;13.80;;
14118;SDS011;7138;49.246;9.100;2023-03-01T10:20:14;32.97;;;14.70;;
14118;SDS011;7138;49.246;9.100;2023-03-01T10:22:47;25.23;;;14.80;;
14118;SDS011;7138;49.246;9.100;2023-03-01T10:25:18;22.15;;;13.75;;
14118;SDS011;7138;49.246;9.100;2023-03-01T10:28:01;25.48;;;14.68;;
14118;SDS011;7138;49.246;9.100;2023-03-01T10:30:43;25.75;;;14.82;;
14118;SDS011;7138;49.246;9.100;2023-03-01T10:33:13;24.95;;;14.63;;
14118;SDS011;7138;49.246;9.100;2023-03-01T10:35:45;23.52;;;13.90;;
14118;SDS011;7138;49.246;9.100;2023-03-01T10:38:14;22.65;;;13.75;;
14118;SDS011;7138;49.246;9.100;2023-03-01T10:40:52;27.65;;;14.00;;
14118;SDS011;7138;49.246;9.100;2023-03-01T10:43:22;25.90;;;14.85;;
14118;SDS011;7138;49.246;9.100;2023-03-01T10:45:49;27.52;;;14.75;;
14118;SDS011;7138;49.246;9.100;2023-03-01T10:48:16;24.98;;;15.13;;
14118;SDS011;7138;49.246;9.100;2023-03-01T10:50:46;24.13;;;13.70;;
14118;SDS011;7138;49.246;9.100;2023-03-01T10:53:20;24.67;;;15.32;;
14118;SDS011;7138;49.246;9.100;2023-03-01T10:55:56;21.40;;;14.35;;
14118;SDS011;7138;49.246;9.100;2023-03-01T10:58:25;23.17;;;13.77;;
14118;SDS011;7138;49.246;9.100;2023-03-01T11:00:53;23.85;;;13.25;;
14118;SDS011;7138;49.246;9.100;2023-03-01T11:03:22;24.92;;;14.43;;
14118;SDS011;7138;49.246;9.100;2023-03-01T11:08:48;23.15;;;14.05;;
14118;SDS011;7138;49.246;9.100;2023-03-01T11:11:21;23.08;;;14.48;;
14118;SDS011;7138;49.246;9.100;2023-03-01T11:13:58;23.65;;;13.95;;
14118;SDS011;7138;49.246;9.100;2023-03-01T11:16:32;23.77;;;13.95;;
14118;SDS011;7138;49.246;9.100;2023-03-01T11:19:14;23.58;;;14.27;;
14118;SDS011;7138;49.246;9.100;2023-03-01T11:21:47;24.88;;;14.27;;
14118;SDS011;7138;49.246;9.100;2023-03-01T11:24:29;24.52;;;14.65;;
14118;SDS011;7138;49.246;9.100;2023-03-01T11:27:14;23.33;;;14.25;;
14118;SDS011;7138;49.246;9.100;2023-03-01T11:29:46;22.98;;;14.57;;
14118;SDS011;7138;49.246;9.100;2023-03-01T11:32:19;24.65;;;14.27;;
14118;SDS011;7138;49.246;9.100;2023-03-01T11:34:51;26.05;;;15.02;;
14118;SDS011;7138;49.246;9.100;2023-03-01T11:37:26;22.40;;;14.50;;
14118;SDS011;7138;49.246;9.100;2023-03-01T11:40:05;23.00;;;14.85;;
14118;SDS011;7138;49.246;9.100;2023-03-01T11:42:48;24.10;;;15.38;;
14118;SDS011;7138;49.246;9.100;2023-03-01T11:45:29;21.55;;;13.85;;
14118;SDS011;7138;49.246;9.100;2023-03-01T11:48:17;29.58;;;17.08;;
14118;SDS011;7138;49.246;9.100;2023-03-01T11:51:13;21.80;;;13.52;;
14118;SDS011;7138;49.246;9.100;2023-03-01T11:56:54;21.35;;;14.05;;
14118;SDS011;7138;49.246;9.100;2023-03-01T11:59:33;24.05;;;14.10;;
14118;SDS011;7138;49.246;9.100;2023-03-01T12:08:35;22.15;;;13.50;;
14118;SDS011;7138;49.246;9.100;2023-03-01T12:11:11;21.20;;;13.45;;
14118;SDS011;7138;49.246;9.100;2023-03-01T12:13:59;25.73;;;14.70;;
14118;SDS011;7138;49.246;9.100;2023-03-01T12:19:54;22.70;;;13.63;;
14118;SDS011;7138;49.246;9.100;2023-03-01T12:22:45;25.17;;;14.45;;
14118;SDS011;7138;49.246;9.100;2023-03-01T12:25:48;22.20;;;12.32;;
14118;SDS011;7138;49.246;9.100;2023-03-01T12:28:32;23.75;;;14.55;;
14118;SDS011;7138;49.246;9.100;2023-03-01T12:31:33;21.10;;;13.52;;
14118;SDS011;7138;49.246;9.100;2023-03-01T12:34:34;24.20;;;14.20;;
14118;SDS011;7138;49.246;9.100;2023-03-01T12:37:25;23.10;;;13.35;;
14118;SDS011;7138;49.246;9.100;2023-03-01T12:40:14;20.83;;;14.02;;
14118;SDS011;7138;49.246;9.100;2023-03-01T12:42:59;21.92;;;13.27;;
14118;SDS011;7138;49.246;9.100;2023-03-01T12:45:42;21.58;;;14.35;;
14118;SDS011;7138;49.246;9.100;2023-03-01T12:48:26;22.45;;;14.23;;
14118;SDS011;7138;49.246;9.100;2023-03-01T12:51:08;22.80;;;14.23;;
14118;SDS011;7138;49.246;9.100;2023-03-01T12:53:41;23.92;;;13.52;;
14118;SDS011;7138;49.246;9.100;2023-03-01T12:56:13;20.58;;;13.43;;
14118;SDS011;7138;49.246;9.100;2023-03-01T12:58:50;20.95;;;13.98;;
14118;SDS011;7138;49.246;9.100;2023-03-01T13:01:31;23.25;;;13.88;;
14118;SDS011;7138;49.246;9.100;2023-03-01T13:04:20;21.88;;;14.02;;
14118;SDS011;7138;49.246;9.100;2023-03-01T13:07:13;23.98;;;14.25;;
14118;SDS011;7138;49.246;9.100;2023-03-01T13:09:55;20.75;;;13.65;;
14118;SDS011;7138;49.246;9.100;2023-03-01T13:12:47;23.15;;;13.55;;
14118;SDS011;7138;49.246;9.100;2023-03-01T13:15:25;22.02;;;13.82;;
14118;SDS011;7138;49.246;9.100;2023-03-01T13:17:54;20.50;;;12.75;;
14118;SDS011;7138;49.246;9.100;2023-03-01T13:20:25;21.85;;;13.20;;
14118;SDS011;7138;49.246;9.100;2023-03-01T13:23:07;19.50;;;12.90;;
14118;SDS011;7138;49.246;9.100;2023-03-01T13:28:48;22.13;;;13.18;;
14118;SDS011;7138;49.246;9.100;2023-03-01T13:34:40;20.38;;;12.48;;
14118;SDS011;7138;49.246;9.100;2023-03-01T13:37:20;21.80;;;12.85;;
14118;SDS011;7138;49.246;9.100;2023-03-01T13:39:54;23.25;;;13.88;;
14118;SDS011;7138;49.246;9.100;2023-03-01T13:42:31;21.52;;;12.90;;
14118;SDS011;7138;49.246;9.100;2023-03-01T13:45:19;21.02;;;13.23;;
14118;SDS011;7138;49.246;9.100;2023-03-01T13:47:52;19.40;;;11.82;;
14118;SDS011;7138;49.246;9.100;2023-03-01T13:50:23;19.48;;;12.98;;
14118;SDS011;7138;49.246;9.100;2023-03-01T13:52:56;21.75;;;13.07;;
14118;SDS011;7138;49.246;9.100;2023-03-01T13:55:29;18.63;;;12.10;;
14118;SDS011;7138;49.246;9.100;2023-03-01T13:58:04;20.77;;;13.27;;
14118;SDS011;7138;49.246;9.100;2023-03-01T14:00:43;19.05;;;12.85;;
14118;SDS011;7138;49.246;9.100;2023-03-01T14:03:10;20.15;;;12.88;;
14118;SDS011;7138;49.246;9.100;2023-03-01T14:08:22;18.80;;;12.32;;
14118;SDS011;7138;49.246;9.100;2023-03-01T14:10:54;20.75;;;12.68;;
14118;SDS011;7138;49.246;9.100;2023-03-01T14:14:15;22.27;;;13.10;;
14118;SDS011;7138;49.246;9.100;2023-03-01T14:17:09;21.75;;;12.98;;
14118;SDS011;7138;49.246;9.100;2023-03-01T14:20:00;21.65;;;13.48;;
14118;SDS011;7138;49.246;9.100;2023-03-01T14:22:37;21.75;;;12.73;;
14118;SDS011;7138;49.246;9.100;2023-03-01T14:25:20;20.30;;;12.60;;
14118;SDS011;7138;49.246;9.100;2023-03-01T14:27:57;21.35;;;12.90;;
14118;SDS011;7138;49.246;9.100;2023-03-01T14:30:30;24.05;;;14.60;;
14118;SDS011;7138;49.246;9.100;2023-03-01T14:33:01;29.58;;;15.50;;
14118;SDS011;7138;49.246;9.100;2023-03-01T14:35:32;22.92;;;12.90;;
14118;SDS011;7138;49.246;9.100;2023-03-01T14:38:01;19.27;;;12.70;;
14118;SDS011;7138;49.246;9.100;2023-03-01T14:40:30;21.52;;;13.25;;
14118;SDS011;7138;49.246;9.100;2023-03-01T14:43:00;21.02;;;13.57;;
14118;SDS011;7138;49.246;9.100;2023-03-01T14:45:35;22.00;;;13.32;;
14118;SDS011;7138;49.246;9.100;2023-03-01T14:48:01;20.23;;;12.82;;
14118;SDS011;7138;49.246;9.100;2023-03-01T14:50:31;19.50;;;12.38;;
14118;SDS011;7138;49.246;9.100;2023-03-01T14:53:00;20.35;;;12.60;;
14118;SDS011;7138;49.246;9.100;2023-03-01T14:55:31;19.50;;;13.15;;
14118;SDS011;7138;49.246;9.100;2023-03-01T14:58:02;19.40;;;13.00;;
14118;SDS011;7138;49.246;9.100;2023-03-01T15:00:31;21.48;;;11.95;;
14118;SDS011;7138;49.246;9.100;2023-03-01T15:03:00;21.52;;;13.50;;
14118;SDS011;7138;49.246;9.100;2023-03-01T15:05:34;19.25;;;11.93;;
14118;SDS011;7138;49.246;9.100;2023-03-01T15:08:02;21.20;;;12.68;;
14118;SDS011;7138;49.246;9.100;2023-03-01T15:10:32;22.33;;;12.88;;
14118;SDS011;7138;49.246;9.100;2023-03-01T15:13:09;20.40;;;12.15;;
14118;SDS011;7138;49.246;9.100;2023-03-01T15:15:37;23.80;;;13.50;;
14118;SDS011;7138;49.246;9.100;2023-03-01T15:18:16;21.00;;;13.05;;
14118;SDS011;7138;49.246;9.100;2023-03-01T15:20:45;20.25;;;12.10;;
14118;SDS011;7138;49.246;9.100;2023-03-01T15:23:18;21.48;;;13.20;;
14118;SDS011;7138;49.246;9.100;2023-03-01T15:25:50;24.08;;;14.13;;